Wetterdaten: Woche 24.10.16 - 30.10.16 (KW43)
Datum Zeit Temp. A. Feuchte A. Luftdruck Regen Wind Richtung Taupunkt Windchill Windben
24.10.2016 00:00 6,8 C 83 % 1016,6 hPa 0,0 l/m 0,0 km/h N 4,1 C 6,8 C 0,4 km/h
24.10.2016 01:00 7,5 C 83 % 1016,8 hPa 0,0 l/m 0,0 km/h N 4,8 C 7,5 C 0,0 km/h
24.10.2016 02:00 7,7 C 83 % 1017,0 hPa 0,0 l/m 0,0 km/h N 5,0 C 7,7 C 0,0 km/h
24.10.2016 03:00 7,7 C 83 % 1017,0 hPa 0,0 l/m 0,0 km/h N 5,0 C 7,7 C 0,0 km/h
24.10.2016 04:00 7,8 C 83 % 1017,1 hPa 0,0 l/m 0,0 km/h N 5,1 C 7,8 C 0,4 km/h
24.10.2016 05:00 7,8 C 83 % 1017,4 hPa 0,0 l/m 0,0 km/h N 5,1 C 7,8 C 0,0 km/h
24.10.2016 06:00 7,7 C 83 % 1017,7 hPa 0,0 l/m 0,0 km/h N 5,0 C 7,7 C 0,0 km/h
24.10.2016 07:00 7,6 C 83 % 1018,2 hPa 0,0 l/m 0,0 km/h N 4,9 C 7,6 C 0,4 km/h
24.10.2016 08:00 7,6 C 83 % 1018,8 hPa 0,0 l/m 0,0 km/h N 4,9 C 7,6 C 0,4 km/h
24.10.2016 09:00 7,6 C 83 % 1019,1 hPa 0,0 l/m 0,0 km/h N 4,9 C 7,6 C 1,2 km/h
24.10.2016 10:00 7,8 C 83 % 1019,1 hPa 0,0 l/m 0,0 km/h N 5,1 C 7,8 C 0,8 km/h
24.10.2016 11:00 8,0 C 83 % 1019,3 hPa 0,0 l/m 0,0 km/h N 5,2 C 8,0 C 1,6 km/h
24.10.2016 12:00 8,5 C 83 % 1019,0 hPa 0,0 l/m 0,0 km/h N 5,8 C 8,5 C 1,6 km/h
24.10.2016 13:00 8,9 C 83 % 1018,7 hPa 0,0 l/m 0,1 km/h N 6,2 C 8,9 C 4,0 km/h
24.10.2016 14:00 9,7 C 83 % 1018,0 hPa 0,0 l/m 0,0 km/h N 7,0 C 9,7 C 1,2 km/h
24.10.2016 15:00 10,1 C 83 % 1017,8 hPa 0,0 l/m 0,4 km/h N 7,3 C 10,1 C 3,6 km/h
24.10.2016 16:00 11,0 C 83 % 1017,4 hPa 0,0 l/m 0,7 km/h N 8,3 C 11,0 C 5,2 km/h
24.10.2016 17:00 11,5 C 83 % 1017,3 hPa 0,0 l/m 0,0 km/h N 8,7 C 11,5 C 2,0 km/h
24.10.2016 18:00 10,6 C 83 % 1017,5 hPa 0,0 l/m 0,0 km/h N 7,8 C 10,6 C 1,6 km/h
24.10.2016 19:00 9,7 C 83 % 1017,5 hPa 0,0 l/m 0,5 km/h N 7,0 C 9,7 C 4,4 km/h
24.10.2016 20:00 9,2 C 83 % 1017,6 hPa 0,0 l/m 0,1 km/h N 6,5 C 9,2 C 2,4 km/h
24.10.2016 21:00 8,5 C 83 % 1017,7 hPa 0,0 l/m 0,0 km/h N 5,8 C 8,5 C 0,0 km/h
24.10.2016 22:00 7,7 C 83 % 1017,7 hPa 0,0 l/m 0,0 km/h N 5,0 C 7,7 C 0,4 km/h
24.10.2016 23:00 7,3 C 83 % 1017,5 hPa 0,0 l/m 0,0 km/h N 4,6 C 7,3 C 0,0 km/h
25.10.2016 00:00 7,5 C 83 % 1017,4 hPa 0,0 l/m 0,0 km/h N 4,8 C 7,5 C 0,0 km/h
25.10.2016 01:00 8,4 C 83 % 1017,3 hPa 0,0 l/m 0,1 km/h N 5,6 C 8,4 C 0,8 km/h
25.10.2016 02:00 9,0 C 83 % 1017,1 hPa 0,0 l/m 0,0 km/h N 6,3 C 9,0 C 0,0 km/h
25.10.2016 03:00 9,3 C 83 % 1016,6 hPa 0,0 l/m 0,0 km/h N 6,6 C 9,3 C 0,0 km/h
25.10.2016 04:00 9,6 C 83 % 1016,4 hPa 0,0 l/m 0,0 km/h N 6,8 C 9,6 C 1,2 km/h
25.10.2016 05:00 9,8 C 83 % 1016,4 hPa 0,3 l/m 0,2 km/h N 6,9 C 9,8 C 1,6 km/h
25.10.2016 06:00 10,0 C 82 % 1016,9 hPa 0,0 l/m 0,1 km/h N 7,0 C 10,0 C 1,2 km/h
25.10.2016 07:00 10,6 C 82 % 1017,5 hPa 0,0 l/m 1,5 km/h N 7,6 C 10,6 C 6,4 km/h
25.10.2016 08:00 10,4 C 82 % 1019,1 hPa 0,0 l/m 6,8 km/h N 7,4 C 9,8 C 18,5 km/h
25.10.2016 09:00 10,4 C 82 % 1020,2 hPa 0,0 l/m 7,6 km/h N 7,4 C 9,5 C 21,3 km/h
25.10.2016 10:00 12,3 C 83 % 1020,8 hPa 0,0 l/m 6,3 km/h N 9,5 C 12,0 C 18,9 km/h
25.10.2016 11:00 16,1 C 76 % 1021,2 hPa 0,0 l/m 7,9 km/h N 11,8 C 15,0 C 21,3 km/h
25.10.2016 12:00 18,2 C 69 % 1020,5 hPa 0,0 l/m 6,3 km/h N 12,5 C 17,9 C 19,7 km/h
25.10.2016 13:00 18,2 C 71 % 1020,1 hPa 0,0 l/m 3,3 km/h N 12,8 C 18,2 C 12,5 km/h
25.10.2016 14:00 17,0 C 74 % 1020,5 hPa 0,0 l/m 3,7 km/h N 12,4 C 16,9 C 16,9 km/h
25.10.2016 15:00 17,6 C 72 % 1020,2 hPa 0,0 l/m 3,9 km/h N 12,5 C 17,6 C 15,7 km/h
25.10.2016 16:00 18,0 C 70 % 1020,3 hPa 0,0 l/m 2,3 km/h N 12,4 C 18,0 C 16,1 km/h
25.10.2016 17:00 17,6 C 71 % 1020,6 hPa 0,0 l/m 0,2 km/h N 12,3 C 17,6 C 4,8 km/h
25.10.2016 18:00 16,4 C 75 % 1020,8 hPa 0,0 l/m 0,1 km/h N 12,0 C 16,4 C 2,8 km/h
25.10.2016 19:00 15,9 C 78 % 1021,0 hPa 0,0 l/m 0,1 km/h N 12,0 C 15,9 C 1,6 km/h
25.10.2016 20:00 14,7 C 81 % 1021,3 hPa 0,0 l/m 0,0 km/h N 11,5 C 14,7 C 1,6 km/h
25.10.2016 21:00 14,5 C 82 % 1021,7 hPa 0,5 l/m 0,4 km/h N 11,5 C 14,5 C 6,0 km/h
25.10.2016 22:00 14,5 C 82 % 1021,6 hPa 0,5 l/m 1,4 km/h N 11,5 C 14,5 C 8,0 km/h
25.10.2016 23:00 14,4 C 82 % 1021,6 hPa 0,5 l/m 3,0 km/h N 11,4 C 14,4 C 9,7 km/h
26.10.2016 00:00 14,4 C 82 % 1021,5 hPa 0,0 l/m 2,7 km/h N 11,3 C 14,4 C 9,3 km/h
26.10.2016 01:00 14,0 C 82 % 1021,8 hPa 0,0 l/m 2,3 km/h N 11,0 C 14,0 C 10,1 km/h
26.10.2016 02:00 13,4 C 83 % 1022,3 hPa 0,0 l/m 1,1 km/h N 10,5 C 13,4 C 8,1 km/h
26.10.2016 03:00 12,9 C 83 % 1022,5 hPa 0,0 l/m 3,3 km/h N 10,1 C 12,9 C 12,9 km/h
26.10.2016 04:00 12,3 C 83 % 1023,0 hPa 0,0 l/m 3,1 km/h N 9,5 C 12,3 C 15,7 km/h
26.10.2016 05:00 11,9 C 83 % 1023,6 hPa 0,0 l/m 3,3 km/h N 9,1 C 11,9 C 13,7 km/h
26.10.2016 06:00 11,6 C 83 % 1024,1 hPa 0,0 l/m 1,7 km/h N 8,7 C 11,6 C 11,6 km/h
26.10.2016 07:00 11,4 C 83 % 1024,9 hPa 0,0 l/m 2,3 km/h N 8,6 C 11,4 C 10,9 km/h
26.10.2016 08:00 11,2 C 83 % 1025,6 hPa 0,0 l/m 3,3 km/h N 8,4 C 11,2 C 9,7 km/h
26.10.2016 09:00 11,2 C 83 % 1026,0 hPa 0,0 l/m 2,2 km/h N 8,4 C 11,2 C 9,6 km/h
26.10.2016 10:00 11,5 C 83 % 1026,1 hPa 0,0 l/m 1,0 km/h N 8,7 C 11,5 C 8,5 km/h
26.10.2016 11:00 11,8 C 83 % 1026,1 hPa 0,0 l/m 2,3 km/h N 9,0 C 11,8 C 9,7 km/h
26.10.2016 12:00 12,5 C 81 % 1026,0 hPa 0,0 l/m 0,7 km/h N 9,3 C 12,5 C 6,4 km/h
26.10.2016 13:00 13,1 C 79 % 1025,8 hPa 0,0 l/m 1,7 km/h N 9,6 C 13,1 C 8,0 km/h
26.10.2016 14:00 13,6 C 77 % 1025,6 hPa 0,0 l/m 1,2 km/h N 9,6 C 13,6 C 8,0 km/h
26.10.2016 15:00 14,2 C 75 % 1025,6 hPa 0,0 l/m 1,7 km/h N 9,7 C 14,2 C 8,4 km/h
26.10.2016 16:00 13,9 C 76 % 1025,9 hPa 0,0 l/m 0,2 km/h N 9,7 C 13,9 C 3,2 km/h
26.10.2016 17:00 13,2 C 79 % 1026,1 hPa 0,0 l/m 0,0 km/h N 9,5 C 13,2 C 2,4 km/h
26.10.2016 18:00 12,5 C 80 % 1026,5 hPa 0,0 l/m 0,0 km/h N 9,1 C 12,5 C 0,0 km/h
26.10.2016 19:00 11,8 C 80 % 1027,0 hPa 0,0 l/m 0,4 km/h N 8,5 C 11,8 C 5,2 km/h
26.10.2016 20:00 10,9 C 77 % 1027,5 hPa 0,0 l/m 1,6 km/h N 7,0 C 10,9 C 10,9 km/h
26.10.2016 21:00 10,2 C 77 % 1028,1 hPa 0,0 l/m 0,3 km/h N 6,3 C 10,2 C 3,2 km/h
26.10.2016 22:00 9,9 C 78 % 1028,4 hPa 0,0 l/m 0,0 km/h N 6,2 C 9,9 C 0,8 km/h
26.10.2016 23:00 9,6 C 78 % 1028,5 hPa 0,0 l/m 0,1 km/h N 5,9 C 9,6 C 3,2 km/h
27.10.2016 00:00 9,4 C 76 % 1028,6 hPa 0,0 l/m 0,2 km/h N 5,3 C 9,4 C 4,0 km/h
27.10.2016 01:00 9,0 C 75 % 1028,8 hPa 0,0 l/m 0,1 km/h N 4,9 C 9,0 C 1,6 km/h
27.10.2016 02:00 8,9 C 79 % 1029,1 hPa 0,0 l/m 0,0 km/h N 5,4 C 8,9 C 2,0 km/h
27.10.2016 03:00 8,8 C 77 % 1029,2 hPa 0,0 l/m 0,1 km/h N 5,0 C 8,8 C 2,0 km/h
27.10.2016 04:00 8,8 C 78 % 1029,3 hPa 0,0 l/m 0,0 km/h N 5,1 C 8,8 C 1,2 km/h
27.10.2016 05:00 8,7 C 79 % 1029,4 hPa 0,0 l/m 0,0 km/h N 5,2 C 8,7 C 2,0 km/h
27.10.2016 06:00 8,6 C 80 % 1029,6 hPa 0,0 l/m 0,0 km/h N 5,3 C 8,6 C 0,8 km/h
27.10.2016 07:00 8,4 C 80 % 1029,8 hPa 0,0 l/m 0,0 km/h N 5,2 C 8,4 C 1,2 km/h
27.10.2016 08:00 8,4 C 81 % 1030,3 hPa 0,0 l/m 0,1 km/h N 5,3 C 8,4 C 2,0 km/h
27.10.2016 09:00 8,8 C 79 % 1030,9 hPa 0,0 l/m 0,9 km/h N 5,4 C 8,8 C 6,4 km/h
27.10.2016 10:00 9,3 C 78 % 1031,1 hPa 0,0 l/m 2,8 km/h N 5,7 C 9,3 C 11,7 km/h
27.10.2016 11:00 10,8 C 78 % 1031,3 hPa 0,0 l/m 4,7 km/h N 7,0 C 10,8 C 14,5 km/h
27.10.2016 12:00 11,9 C 75 % 1031,1 hPa 0,0 l/m 4,0 km/h N 7,5 C 11,9 C 15,7 km/h
27.10.2016 13:00 12,3 C 74 % 1030,9 hPa 0,0 l/m 3,4 km/h N 7,8 C 12,3 C 14,1 km/h
27.10.2016 14:00 12,5 C 74 % 1030,6 hPa 0,0 l/m 3,2 km/h N 7,9 C 12,5 C 12,5 km/h
27.10.2016 15:00 12,5 C 72 % 1030,4 hPa 0,0 l/m 5,0 km/h N 7,5 C 12,4 C 17,7 km/h
27.10.2016 16:00 12,3 C 67 % 1030,7 hPa 0,0 l/m 4,3 km/h N 6,2 C 12,3 C 15,7 km/h
27.10.2016 17:00 11,7 C 70 % 1031,1 hPa 0,0 l/m 1,4 km/h N 6,4 C 11,7 C 9,7 km/h
27.10.2016 18:00 11,2 C 78 % 1031,6 hPa 0,0 l/m 2,7 km/h N 7,5 C 11,2 C 13,3 km/h
27.10.2016 19:00 10,8 C 79 % 1032,1 hPa 0,0 l/m 2,9 km/h N 7,2 C 10,8 C 12,9 km/h
27.10.2016 20:00 10,3 C 81 % 1032,7 hPa 0,0 l/m 0,9 km/h N 7,0 C 10,3 C 7,6 km/h
27.10.2016 21:00 9,6 C 80 % 1033,3 hPa 0,0 l/m 0,9 km/h N 6,3 C 9,6 C 7,2 km/h
27.10.2016 22:00 8,8 C 79 % 1033,7 hPa 0,0 l/m 0,1 km/h N 5,3 C 8,8 C 2,0 km/h
27.10.2016 23:00 7,4 C 81 % 1033,9 hPa 0,0 l/m 0,0 km/h N 4,3 C 7,4 C 0,4 km/h
28.10.2016 00:00 7,6 C 83 % 1033,9 hPa 0,0 l/m 0,1 km/h N 4,9 C 7,6 C 2,4 km/h
28.10.2016 01:00 8,2 C 83 % 1033,7 hPa 0,0 l/m 0,3 km/h N 5,4 C 8,2 C 3,6 km/h
28.10.2016 02:00 8,0 C 83 % 1033,6 hPa 0,0 l/m 0,4 km/h N 5,3 C 8,0 C 3,6 km/h
28.10.2016 03:00 7,8 C 83 % 1033,2 hPa 0,0 l/m 0,0 km/h N 5,1 C 7,8 C 0,4 km/h
28.10.2016 04:00 8,5 C 83 % 1032,8 hPa 0,0 l/m 0,1 km/h N 5,8 C 8,5 C 2,4 km/h
28.10.2016 05:00 8,6 C 83 % 1033,3 hPa 0,0 l/m 0,0 km/h N 5,9 C 8,6 C 2,8 km/h
28.10.2016 06:00 7,8 C 83 % 1033,5 hPa 0,0 l/m 0,1 km/h N 5,1 C 7,8 C 1,2 km/h
28.10.2016 07:00 6,7 C 83 % 1033,2 hPa 0,0 l/m 0,0 km/h N 4,0 C 6,7 C 0,0 km/h
28.10.2016 08:00 5,7 C 83 % 1033,8 hPa 0,0 l/m 0,0 km/h N 3,0 C 5,7 C 0,0 km/h
28.10.2016 09:00 6,9 C 83 % 1034,0 hPa 0,0 l/m 0,0 km/h N 4,2 C 6,9 C 0,0 km/h
28.10.2016 10:00 9,6 C 83 % 1033,6 hPa 0,0 l/m 0,2 km/h N 6,8 C 9,6 C 3,2 km/h
28.10.2016 11:00 11,1 C 82 % 1033,3 hPa 0,0 l/m 0,5 km/h N 8,2 C 11,1 C 5,2 km/h
28.10.2016 12:00 13,2 C 76 % 1032,6 hPa 0,0 l/m 0,7 km/h N 9,1 C 13,2 C 6,4 km/h
28.10.2016 13:00 14,7 C 70 % 1032,1 hPa 0,0 l/m 0,2 km/h N 9,3 C 14,7 C 5,6 km/h
28.10.2016 14:00 15,0 C 70 % 1031,3 hPa 0,0 l/m 0,2 km/h N 9,5 C 15,0 C 4,0 km/h
28.10.2016 15:00 15,3 C 67 % 1030,8 hPa 0,0 l/m 0,4 km/h N 9,2 C 15,3 C 3,6 km/h
28.10.2016 16:00 14,8 C 68 % 1030,5 hPa 0,0 l/m 0,3 km/h N 9,0 C 14,8 C 4,0 km/h
28.10.2016 17:00 13,7 C 68 % 1030,5 hPa 0,0 l/m 0,6 km/h N 7,8 C 13,7 C 6,9 km/h
28.10.2016 18:00 12,6 C 67 % 1030,7 hPa 0,0 l/m 0,6 km/h N 6,7 C 12,6 C 10,5 km/h
28.10.2016 19:00 12,4 C 67 % 1030,7 hPa 0,0 l/m 3,3 km/h N 6,4 C 12,4 C 13,7 km/h
28.10.2016 20:00 12,5 C 67 % 1030,9 hPa 0,0 l/m 6,3 km/h N 6,5 C 12,1 C 22,5 km/h
28.10.2016 21:00 13,0 C 65 % 1030,9 hPa 0,0 l/m 7,6 km/h N 6,5 C 12,3 C 20,9 km/h
28.10.2016 22:00 12,8 C 67 % 1030,8 hPa 0,0 l/m 6,9 km/h N 6,8 C 12,5 C 20,9 km/h
28.10.2016 23:00 12,3 C 72 % 1030,6 hPa 0,0 l/m 5,6 km/h N 7,3 C 11,9 C 21,3 km/h
29.10.2016 00:00 11,9 C 76 % 1030,3 hPa 0,0 l/m 9,7 km/h N 7,8 C 9,9 C 28,2 km/h
29.10.2016 01:00 11,4 C 80 % 1030,3 hPa 0,0 l/m 6,5 km/h N 8,0 C 10,8 C 23,7 km/h
29.10.2016 02:00 11,3 C 80 % 1030,0 hPa 0,0 l/m 8,7 km/h N 8,0 C 9,8 C 24,1 km/h
29.10.2016 03:00 11,3 C 80 % 1029,8 hPa 0,0 l/m 6,4 km/h N 8,1 C 11,1 C 22,9 km/h
29.10.2016 04:00 11,2 C 81 % 1029,6 hPa 0,0 l/m 5,9 km/h N 8,1 C 11,0 C 22,1 km/h
29.10.2016 05:00 11,1 C 82 % 1029,2 hPa 0,0 l/m 4,7 km/h N 8,1 C 11,1 C 19,3 km/h
29.10.2016 06:00 11,2 C 82 % 1029,0 hPa 0,0 l/m 5,9 km/h N 8,2 C 10,9 C 19,3 km/h
29.10.2016 07:00 11,0 C 82 % 1028,9 hPa 0,0 l/m 8,6 km/h N 8,1 C 9,6 C 25,7 km/h
29.10.2016 08:00 10,8 C 83 % 1029,1 hPa 0,3 l/m 7,8 km/h N 8,0 C 9,7 C 24,1 km/h
29.10.2016 09:00 10,8 C 83 % 1029,3 hPa 0,3 l/m 6,4 km/h N 8,1 C 10,7 C 20,5 km/h
29.10.2016 10:00 11,0 C 83 % 1029,2 hPa 0,0 l/m 5,0 km/h N 8,3 C 11,0 C 17,3 km/h
29.10.2016 11:00 12,0 C 82 % 1028,9 hPa 0,0 l/m 7,6 km/h N 8,9 C 11,2 C 19,7 km/h
29.10.2016 12:00 12,2 C 81 % 1028,6 hPa 0,0 l/m 7,7 km/h N 8,9 C 11,3 C 21,3 km/h
29.10.2016 13:00 12,2 C 80 % 1027,9 hPa 0,0 l/m 7,4 km/h N 8,9 C 11,4 C 20,1 km/h
29.10.2016 14:00 12,3 C 80 % 1027,2 hPa 0,0 l/m 6,5 km/h N 8,9 C 12,0 C 18,9 km/h
29.10.2016 15:00 12,4 C 80 % 1026,8 hPa 0,0 l/m 6,6 km/h N 9,0 C 12,1 C 19,3 km/h
29.10.2016 16:00 12,7 C 78 % 1026,2 hPa 0,0 l/m 6,2 km/h N 8,9 C 12,4 C 18,9 km/h
29.10.2016 17:00 12,4 C 78 % 1026,2 hPa 0,0 l/m 6,9 km/h N 8,6 C 12,1 C 20,9 km/h
29.10.2016 18:00 12,2 C 78 % 1026,6 hPa 0,0 l/m 8,2 km/h N 8,5 C 10,9 C 22,5 km/h
29.10.2016 19:00 11,8 C 77 % 1027,4 hPa 0,0 l/m 4,8 km/h N 7,9 C 11,8 C 18,9 km/h
29.10.2016 20:00 11,4 C 72 % 1027,9 hPa 0,0 l/m 4,5 km/h N 6,5 C 11,2 C 17,7 km/h
29.10.2016 21:00 10,9 C 70 % 1028,1 hPa 0,0 l/m 5,1 km/h N 5,5 C 10,9 C 18,5 km/h
29.10.2016 22:00 10,6 C 70 % 1028,2 hPa 0,0 l/m 4,3 km/h N 5,4 C 10,6 C 14,9 km/h
29.10.2016 23:00 10,3 C 69 % 1028,1 hPa 0,0 l/m 4,8 km/h N 4,9 C 10,1 C 18,5 km/h
30.10.2016 00:00 9,9 C 68 % 1028,1 hPa 0,0 l/m 4,1 km/h N 4,3 C 9,9 C 17,3 km/h
30.10.2016 01:00 9,9 C 68 % 1028,0 hPa 0,0 l/m 5,3 km/h N 4,3 C 9,9 C 19,3 km/h
30.10.2016 02:00 9,8 C 63 % 1027,5 hPa 0,0 l/m 8,6 km/h N 3,2 C 8,3 C 23,7 km/h
30.10.2016 03:00 9,6 C 63 % 1027,0 hPa 0,0 l/m 8,0 km/h N 2,8 C 8,4 C 22,5 km/h
30.10.2016 04:00 9,3 C 65 % 1026,9 hPa 0,0 l/m 6,5 km/h N 3,1 C 9,0 C 19,3 km/h
30.10.2016 05:00 9,4 C 68 % 1026,9 hPa 0,0 l/m 8,3 km/h N 3,7 C 8,0 C 24,1 km/h
30.10.2016 06:00 9,6 C 66 % 1026,9 hPa 0,0 l/m 9,3 km/h N 3,5 C 7,6 C 23,7 km/h
30.10.2016 07:00 9,5 C 69 % 1027,1 hPa 0,0 l/m 9,7 km/h N 4,1 C 7,2 C 25,7 km/h
30.10.2016 08:00 9,8 C 67 % 1027,3 hPa 0,0 l/m 10,8 km/h N 4,0 C 7,0 C 27,4 km/h
30.10.2016 09:00 10,6 C 64 % 1027,2 hPa 0,0 l/m 11,3 km/h N 4,1 C 7,6 C 30,2 km/h
30.10.2016 10:00 11,2 C 63 % 1027,1 hPa 0,0 l/m 13,4 km/h N 4,5 C 7,3 C 30,2 km/h
30.10.2016 11:00 11,4 C 65 % 1026,7 hPa 0,0 l/m 11,8 km/h N 4,9 C 8,3 C 35,0 km/h
30.10.2016 12:00 11,3 C 67 % 1026,3 hPa 0,0 l/m 8,9 km/h N 5,3 C 9,6 C 22,5 km/h
30.10.2016 13:00 11,6 C 66 % 1025,7 hPa 0,0 l/m 10,3 km/h N 5,5 C 9,2 C 28,2 km/h
30.10.2016 14:00 11,4 C 67 % 1025,6 hPa 0,0 l/m 10,0 km/h N 5,5 C 9,1 C 26,6 km/h
30.10.2016 15:00 10,8 C 71 % 1025,7 hPa 0,0 l/m 5,7 km/h N 5,7 C 10,7 C 19,7 km/h
30.10.2016 16:00 10,5 C 68 % 1025,9 hPa 0,0 l/m 7,1 km/h N 4,9 C 10,0 C 21,7 km/h
30.10.2016 17:00 10,4 C 66 % 1026,3 hPa 0,0 l/m 5,6 km/h N 4,3 C 10,3 C 16,6 km/h
30.10.2016 18:00 10,0 C 68 % 1026,8 hPa 0,0 l/m 4,8 km/h N 4,3 C 10,0 C 18,5 km/h
30.10.2016 19:00 9,6 C 70 % 1027,3 hPa 0,0 l/m 4,0 km/h N 4,4 C 9,6 C 18,5 km/h
30.10.2016 20:00 9,0 C 72 % 1027,9 hPa 0,0 l/m 4,0 km/h N 4,2 C 9,0 C 16,9 km/h
30.10.2016 21:00 8,5 C 73 % 1028,4 hPa 0,0 l/m 3,2 km/h N 3,9 C 8,5 C 14,5 km/h
30.10.2016 22:00 8,1 C 75 % 1028,9 hPa 0,0 l/m 3,2 km/h N 3,9 C 8,1 C 16,1 km/h
30.10.2016 23:00 7,9 C 74 % 1029,2 hPa 0,0 l/m 3,2 km/h N 3,6 C 7,9 C 13,7 km/h
Min-Datum _ 28.10.16 30.10.16 25.10.16 - 24.10.16 - 30.10.16 28.10.16 24.10.16
_ Min-Zeit 08:15 02:30 04:45 - 00:00 - 02:45 08:15 00:00
Minimum _ 5,6 C 60 % 1016,3 hPa - 0,0 km/h - 2,4 C 5,6 C 0,0 km/h
Max-Datum _ 25.10.16 24.10.16 28.10.16 25.10.16 30.10.16 - 25.10.16 25.10.16 30.10.16
_ Max-Zeit 13:00 00:00 09:30 21:30 11:15 - 13:00 13:00 11:15
Maximum _ 18,7 C 83 % 1034,2 hPa 0,5 l/m 14,9 km/h
N
- 12,9 C 18,7 C 43,5 km/h
N
Durchschnitt _ 10,9 C 77 % 1025,9 hPa #2,3 l/m 3,0 km/h N 7,0 C 10,6 C 10,7 km/h